createdAt,value
2019-04-10T00:02:37.631Z,11.5
2019-04-10T00:07:37.520Z,11.5
2019-04-10T00:12:38.742Z,11.4
2019-04-10T00:17:37.521Z,11.4
2019-04-10T00:22:38.160Z,11.4
2019-04-10T00:27:37.173Z,11.4
2019-04-10T00:32:37.089Z,11.3
2019-04-10T00:37:37.374Z,11.3
2019-04-10T00:42:37.098Z,11.3
2019-04-10T00:47:37.455Z,11.3
2019-04-10T00:52:37.102Z,11.3
2019-04-10T00:57:38.084Z,11.2
2019-04-10T01:02:37.310Z,11.2
2019-04-10T01:07:40.077Z,11.2
2019-04-10T01:12:38.304Z,11.1
2019-04-10T01:17:38.172Z,11.1
2019-04-10T01:22:37.229Z,11
2019-04-10T01:27:38.118Z,11
2019-04-10T01:32:37.120Z,11
2019-04-10T01:37:48.263Z,10.9
2019-04-10T01:42:37.263Z,10.9
2019-04-10T01:47:37.325Z,10.8
2019-04-10T01:52:37.357Z,10.8
2019-04-10T01:57:37.108Z,10.7
2019-04-10T02:02:37.309Z,10.7
2019-04-10T02:07:38.186Z,10.6
2019-04-10T02:12:37.143Z,10.6
2019-04-10T02:17:37.149Z,10.6
2019-04-10T02:22:37.148Z,10.5
2019-04-10T02:27:38.350Z,10.5
2019-04-10T02:32:39.189Z,10.5
2019-04-10T02:37:37.532Z,10.4
2019-04-10T02:42:38.611Z,10.4
2019-04-10T02:47:37.141Z,10.3
2019-04-10T02:52:38.896Z,10.3
2019-04-10T02:57:39.003Z,10.3
2019-04-10T03:02:38.613Z,10.2
2019-04-10T03:07:37.425Z,10.2
2019-04-10T03:12:38.707Z,10.2
2019-04-10T03:17:37.417Z,10.1
2019-04-10T03:22:37.285Z,10.1
2019-04-10T03:27:37.170Z,10.1
2019-04-10T03:32:41.327Z,10
2019-04-10T03:37:37.289Z,10
2019-04-10T03:42:37.333Z,10
2019-04-10T03:47:37.654Z,10
2019-04-10T03:52:37.790Z,9.9
2019-04-10T03:57:38.483Z,9.9
2019-04-10T04:02:38.053Z,9.9
2019-04-10T04:07:37.410Z,9.8
2019-04-10T04:12:37.189Z,9.8
2019-04-10T04:17:37.978Z,9.8
2019-04-10T04:22:37.221Z,9.7
2019-04-10T04:27:37.746Z,9.7
2019-04-10T04:32:37.925Z,9.6
2019-04-10T04:37:37.908Z,9.6
2019-04-10T04:42:37.217Z,9.5
2019-04-10T04:47:37.396Z,9.5
2019-04-10T04:52:37.434Z,9.5
2019-04-10T04:57:39.112Z,9.5
2019-04-10T05:02:37.287Z,9.5
2019-04-10T05:07:37.649Z,9.4
2019-04-10T05:12:38.074Z,9.4
2019-04-10T05:17:37.387Z,9.4
2019-04-10T05:22:37.241Z,9.3
2019-04-10T05:27:37.465Z,9.3
2019-04-10T05:32:37.551Z,9.4
2019-04-10T05:37:37.906Z,9.3
2019-04-10T05:42:37.425Z,9.3
2019-04-10T05:47:37.389Z,9.3
2019-04-10T05:52:37.488Z,9.4
2019-04-10T05:57:37.249Z,9.4
2019-04-10T06:02:37.383Z,9.4
2019-04-10T06:07:37.431Z,9.3
2019-04-10T06:12:38.253Z,9.3
2019-04-10T06:17:38.475Z,9.3
2019-04-10T06:22:37.416Z,9.3
2019-04-10T06:27:37.459Z,9.3
2019-04-10T06:32:37.757Z,9.3
2019-04-10T06:37:37.971Z,9.3
2019-04-10T06:42:45.209Z,9.3
2019-04-10T06:47:38.219Z,9.3
2019-04-10T06:52:37.233Z,9.3
2019-04-10T06:57:46.728Z,9.4
2019-04-10T07:02:37.272Z,9.4
2019-04-10T07:07:47.174Z,9.4
2019-04-10T07:12:37.572Z,9.5
2019-04-10T07:17:40.591Z,9.5
2019-04-10T07:22:42.131Z,9.5
2019-04-10T07:27:39.781Z,9.6
2019-04-10T07:32:41.122Z,9.6
2019-04-10T07:37:37.252Z,9.7
2019-04-10T07:42:40.052Z,9.8
2019-04-10T07:47:37.966Z,9.8
2019-04-10T07:52:37.444Z,9.9
2019-04-10T07:57:38.472Z,10.1
2019-04-10T08:02:38.385Z,10.1
2019-04-10T08:07:38.852Z,10.2
2019-04-10T08:12:45.103Z,10.2
2019-04-10T08:17:37.479Z,10.2
2019-04-10T08:22:37.531Z,10.2
2019-04-10T08:27:38.391Z,10.3
2019-04-10T08:32:49.091Z,10.4
2019-04-10T08:37:37.350Z,10.5
2019-04-10T08:42:37.558Z,10.6
2019-04-10T08:47:37.566Z,10.7
2019-04-10T08:52:37.518Z,10.8
2019-04-10T08:57:38.248Z,10.9
2019-04-10T09:02:38.099Z,11
2019-04-10T09:07:38.180Z,11.2
2019-04-10T09:12:37.555Z,11.3
2019-04-10T09:17:37.716Z,11.5
2019-04-10T09:22:57.808Z,11.6
2019-04-10T09:27:37.902Z,11.7
2019-04-10T09:32:38.689Z,11.8
2019-04-10T09:37:37.948Z,11.9
2019-04-10T09:42:37.577Z,11.9
2019-04-10T09:47:37.352Z,12.2
2019-04-10T09:52:37.634Z,12.2
2019-04-10T09:57:37.361Z,12.2
2019-04-10T10:02:37.950Z,12.1
2019-04-10T10:07:37.354Z,12.1
2019-04-10T10:12:38.504Z,12.1
2019-04-10T10:17:37.594Z,12.1
2019-04-10T10:22:37.384Z,12.1
2019-04-10T10:27:38.530Z,12
2019-04-10T10:32:37.598Z,12.1
2019-04-10T10:37:38.706Z,12
2019-04-10T10:42:39.386Z,12.1
2019-04-10T10:47:38.045Z,12.1
2019-04-10T10:52:37.611Z,12.2
2019-04-10T10:57:37.562Z,12.2
2019-04-10T11:02:37.937Z,12.3
2019-04-10T11:07:38.796Z,12.2
2019-04-10T11:12:38.351Z,12.2
2019-04-10T11:17:38.418Z,12.3
2019-04-10T11:22:37.740Z,12.4
2019-04-10T11:27:37.538Z,12.4
2019-04-10T11:32:38.178Z,12.5
2019-04-10T11:37:44.333Z,12.4
2019-04-10T11:42:39.718Z,12.5
2019-04-10T11:47:37.437Z,12.5
2019-04-10T11:52:42.399Z,12.4
2019-04-10T12:02:39.413Z,12.3
2019-04-10T12:07:59.827Z,12.3
2019-04-10T12:12:37.687Z,12.3
2019-04-10T12:17:38.134Z,12.1
2019-04-10T12:22:37.946Z,12.1
2019-04-10T12:27:37.679Z,12.1
2019-04-10T12:32:38.885Z,12
2019-04-10T12:37:37.601Z,12
2019-04-10T12:42:38.612Z,11.9
2019-04-10T12:47:37.675Z,11.9
2019-04-10T12:52:37.462Z,11.8
2019-04-10T12:57:37.635Z,11.7
2019-04-10T13:02:38.602Z,11.6
2019-04-10T13:07:37.937Z,11.5
2019-04-10T13:12:37.765Z,11.4
2019-04-10T13:17:38.573Z,11.4
2019-04-10T13:22:37.601Z,11.4
2019-04-10T13:27:37.487Z,11.3
2019-04-10T13:32:38.093Z,11.3
2019-04-10T13:37:37.897Z,11.3
2019-04-10T13:42:37.634Z,11.2
2019-04-10T13:47:38.615Z,11.2
2019-04-10T13:52:38.468Z,11.1
2019-04-10T13:57:39.031Z,11.1
2019-04-10T14:02:37.646Z,11
2019-04-10T14:07:37.498Z,11
2019-04-10T14:12:38.797Z,11
2019-04-10T14:17:37.668Z,10.9
2019-04-10T14:22:37.969Z,10.8
2019-04-10T14:27:38.483Z,10.9
2019-04-10T14:32:37.762Z,10.8
2019-04-10T14:37:37.917Z,10.8
2019-04-10T14:42:38.345Z,10.8
2019-04-10T14:47:51.813Z,10.8
2019-04-10T14:52:43.243Z,10.8
2019-04-10T14:57:41.262Z,10.7
2019-04-10T15:02:41.260Z,10.7
2019-04-10T15:07:41.074Z,10.6
2019-04-10T15:12:41.605Z,10.5
2019-04-10T15:17:42.168Z,10.5
2019-04-10T15:22:42.120Z,10.5
2019-04-10T15:27:41.673Z,10.4
2019-04-10T15:32:42.127Z,10.3
2019-04-10T15:37:41.577Z,10.3
2019-04-10T15:42:41.067Z,10.2
2019-04-10T15:47:50.434Z,10.2
2019-04-10T15:52:41.108Z,10.2
2019-04-10T15:57:47.583Z,10.1
2019-04-10T16:02:41.077Z,10.1
2019-04-10T16:07:41.280Z,10.1
2019-04-10T16:12:41.570Z,10.1
2019-04-10T16:17:41.920Z,10
2019-04-10T16:22:41.286Z,10
2019-04-10T16:27:41.249Z,9.9
2019-04-10T16:32:41.781Z,9.9
2019-04-10T16:37:41.856Z,9.9
2019-04-10T16:42:41.665Z,9.9
2019-04-10T16:47:41.986Z,9.9
2019-04-10T16:52:41.138Z,9.8
2019-04-10T16:57:41.108Z,9.7
2019-04-10T17:02:42.267Z,9.7
2019-04-10T17:07:41.293Z,9.7
2019-04-10T17:12:42.121Z,9.6
2019-04-10T17:17:41.954Z,9.6
2019-04-10T17:22:44.253Z,9.6
2019-04-10T17:27:41.621Z,9.6
2019-04-10T17:32:41.142Z,9.6
2019-04-10T17:37:42.160Z,9.7
2019-04-10T17:42:41.161Z,9.7
2019-04-10T17:47:41.163Z,9.6
2019-04-10T17:52:41.387Z,9.6
2019-04-10T17:57:43.307Z,9.6
2019-04-10T18:02:41.334Z,9.6
2019-04-10T18:07:41.184Z,9.6
2019-04-10T18:12:41.198Z,9.6
2019-04-10T18:17:41.179Z,9.6
2019-04-10T18:22:41.398Z,9.6
2019-04-10T18:27:41.343Z,9.6
2019-04-10T18:32:42.122Z,9.5
2019-04-10T18:37:41.412Z,9.5
2019-04-10T18:42:41.179Z,9.5
2019-04-10T18:47:41.772Z,9.5
2019-04-10T18:52:41.377Z,9.5
2019-04-10T18:57:41.551Z,9.4
2019-04-10T19:02:41.367Z,9.4
2019-04-10T19:07:42.860Z,9.4
2019-04-10T19:12:41.472Z,9.4
2019-04-10T19:17:41.920Z,9.4
2019-04-10T19:22:42.442Z,9.4
2019-04-10T19:27:42.331Z,9.4
2019-04-10T19:32:43.642Z,9.4
2019-04-10T19:37:41.576Z,9.4
2019-04-10T19:42:41.812Z,9.3
2019-04-10T19:47:42.235Z,9.3
2019-04-10T19:52:42.476Z,9.3
2019-04-10T19:57:41.565Z,9.3
2019-04-10T20:02:41.703Z,9.3
2019-04-10T20:07:41.392Z,9.3
2019-04-10T20:12:42.582Z,9.2
2019-04-10T20:17:41.352Z,9.2
2019-04-10T20:22:41.815Z,9.2
2019-04-10T20:27:42.466Z,9.1
2019-04-10T20:32:41.959Z,9.1
2019-04-10T20:37:41.377Z,9.1
2019-04-10T20:42:42.485Z,9.1
2019-04-10T20:47:41.496Z,9
2019-04-10T20:52:41.257Z,9
2019-04-10T20:57:41.254Z,9
2019-04-10T21:02:42.552Z,9
2019-04-10T21:07:41.259Z,8.9
2019-04-10T21:12:44.191Z,8.9
2019-04-10T21:17:42.400Z,8.9
2019-04-10T21:22:41.391Z,8.9
2019-04-10T21:27:41.401Z,8.9
2019-04-10T21:32:41.476Z,8.9
2019-04-10T21:37:42.354Z,8.9
2019-04-10T21:42:41.410Z,8.9
2019-04-10T21:47:41.833Z,8.9
2019-04-10T21:52:41.433Z,8.9
2019-04-10T21:57:42.464Z,8.9
2019-04-10T22:02:42.117Z,8.9
2019-04-10T22:07:41.950Z,8.9
2019-04-10T22:12:46.584Z,8.9
2019-04-10T22:17:42.504Z,8.9
2019-04-10T22:22:41.281Z,8.9
2019-04-10T22:27:41.525Z,8.9
2019-04-10T22:32:41.289Z,8.9
2019-04-10T22:37:41.481Z,8.9
2019-04-10T22:42:45.880Z,8.8
2019-04-10T22:47:41.442Z,8.8
2019-04-10T22:52:42.220Z,8.8
2019-04-10T22:57:41.651Z,8.8
2019-04-10T23:02:41.310Z,8.8
2019-04-10T23:07:41.306Z,8.8
2019-04-10T23:12:51.769Z,8.7
2019-04-10T23:17:41.319Z,8.7
2019-04-10T23:22:41.319Z,8.6
2019-04-10T23:27:41.933Z,8.6
2019-04-10T23:32:41.584Z,8.6
2019-04-10T23:37:41.323Z,8.6
2019-04-10T23:42:41.332Z,8.6
2019-04-10T23:47:42.307Z,8.6
2019-04-10T23:52:42.185Z,8.6
2019-04-10T23:57:41.350Z,8.6
